Date,TemperatureHighF,TemperatureAvgF,TemperatureLowF,DewpointHighF,DewpointAvgF,DewpointLowF,HumidityHigh,HumidityAvg,HumidityLow,PressureMaxIn,PressureMinIn,WindSpeedMaxMPH,WindSpeedAvgMPH,GustSpeedMaxMPH,PrecipitationSumIn
2013-2-1,54.7,31.6,18.1,16.3,9.3,1.8,56,39,20,29.71,29.41,13,4,17,0.00
2013-2-2,67.4,42.4,24.4,28.6,21.5,15.7,72,46,17,29.53,29.41,11,3,17,0.00
2013-2-3,65.8,48.4,33.8,24.8,20.8,14.8,54,36,15,29.56,29.21,10,4,15,0.00
2013-2-4,75.7,56.8,38.9,33.9,25.6,14.4,53,32,10,29.23,29.09,11,5,14,0.00
2013-2-5,79.7,48.9,29.7,37.9,25.1,11.9,77,46,10,29.32,29.18,8,1,10,0.00
2013-2-6,67.5,51.1,33.7,46.0,36.0,24.3,88,58,35,29.32,29.15,14,5,22,0.00
2013-2-7,63.4,53.2,43.5,56.9,46.2,32.9,93,77,60,29.41,29.09,13,6,20,0.04
2013-2-8,62.7,42.4,34.6,33.0,28.7,22.8,84,61,29,29.59,29.41,9,4,13,0.00
2013-2-9,44.7,40.7,34.0,44.7,34.7,25.7,100,80,59,29.41,29.00,15,8,23,0.13
2013-2-10,68.5,53.9,38.9,53.2,30.6,10.3,100,50,12,29.32,28.88,17,8,25,0.16
2013-2-11,67.0,43.4,30.1,25.7,19.6,11.6,64,41,15,29.50,29.32,9,3,13,0.00
2013-2-12,41.7,37.9,32.5,36.5,28.8,20.0,98,71,50,29.38,29.21,9,4,13,0.29
2013-2-13,64.2,43.2,35.2,36.0,30.0,21.4,99,66,24,29.32,29.21,10,4,13,0.00
2013-2-14,70.1,48.7,34.0,31.0,24.8,19.3,59,41,22,29.47,29.23,15,5,22,0.00
2013-2-15,54.0,38.8,28.0,27.9,14.2,0.9,61,39,13,29.65,29.44,12,6,19,0.00
2013-2-16,55.3,37.7,26.1,22.5,12.9,6.2,58,38,15,29.65,29.32,14,4,20,0.00
2013-2-17,74.8,53.4,33.6,29.1,21.9,11.2,60,33,11,29.32,29.03,16,7,30,0.00
2013-2-18,62.5,55.6,39.3,46.9,32.0,17.9,65,42,25,29.41,28.91,22,12,32,0.00
2013-2-19,65.8,41.4,24.5,23.9,17.5,10.1,68,41,15,29.59,29.41,9,2,12,0.00
2013-2-20,39.2,35.8,33.1,34.0,27.5,17.2,99,76,41,29.53,29.26,12,5,19,0.34
2013-2-21,33.1,33.0,32.7,32.2,30.3,29.2,97,90,86,29.26,29.03,12,4,17,0.28
2013-2-22,31.1,28.6,26.2,16.0,15.1,13.8,56,53,49,29.41,29.38,5,3,6,0.00
2013-2-23,60.7,34.8,19.7,23.9,16.9,12.2,76,50,24,29.38,29.21,6,2,10,0.00
2013-2-24,66.8,44.9,25.3,33.8,26.4,16.6,79,50,24,29.23,29.03,19,6,24,0.00
2013-2-25,46.6,40.1,33.8,39.6,33.9,27.7,100,81,51,29.09,28.76,18,8,27,0.95
2013-2-26,46.2,38.2,32.4,33.9,28.7,23.1,100,71,48,29.18,28.76,20,10,30,0.20
2013-2-27,52.5,38.5,30.9,27.5,23.7,19.1,81,58,30,29.41,29.18,21,8,29,0.00
2013-2-28,56.5,38.9,28.8,27.0,23.6,20.7,81,56,32,29.47,29.41,14,7,20,0.00